This is the latest recevied weather packets stored in our database for station/object AE6BH. If no packets are shown the sender has not sent any weather packets the latest 10 day(s).
| Time | Temp. | Humidity | Pressure | Rain* | Wind** | Luminosity | Snow |
|---|---|---|---|---|---|---|---|
| 1778183275 | 24.44° C | 50% | 1015.7 hPa | 0 mm | - | 745 W/m² | - |
| 1778182970 | 23.33° C | 52% | 1015.7 hPa | 0 mm | - | 753 W/m² | - |
| 1778182667 | 23.89° C | 51% | 1015.6 hPa | 0 mm | - | 756 W/m² | - |
| 1778182364 | 23.89° C | 52% | 1015.6 hPa | 0 mm | - | 743 W/m² | - |
| 1778182060 | 23.33° C | 52% | 1015.8 hPa | 0 mm | - | 752 W/m² | - |
| 1778181757 | 23.89° C | 52% | 1015.8 hPa | 0 mm | - | 759 W/m² | - |
| 1778181453 | 23.89° C | 52% | 1015.9 hPa | 0 mm | - | 752 W/m² | - |
| 1778181150 | 22.78° C | 54% | 1015.9 hPa | 0 mm | - | 753 W/m² | - |
| 1778180847 | 23.89° C | 51% | 1015.8 hPa | 0 mm | - | 757 W/m² | - |
| 1778180545 | 23.33° C | 53% | 1016.1 hPa | 0 mm | - | 777 W/m² | - |
| 1778180244 | 23.89° C | 52% | 1015.8 hPa | 0 mm | - | 769 W/m² | - |
| 1778179940 | 23.33° C | 53% | 1015.8 hPa | 0 mm | - | 751 W/m² | - |
| 1778179637 | 23.89° C | 53% | 1016.3 hPa | 0 mm | - | 758 W/m² | - |
| 1778179330 | 23.89° C | 50% | 1016.1 hPa | 0 mm | - | 768 W/m² | - |
| 1778179026 | 24.44° C | 49% | 1016.2 hPa | 0 mm | - | 769 W/m² | - |
| 1778178723 | 23.89° C | 50% | 1016.1 hPa | 0 mm | - | 757 W/m² | - |
| 1778178420 | 24.44° C | 49% | 1016.3 hPa | 0 mm | - | 749 W/m² | - |
| 1778178115 | 23.89° C | 48% | 1016.3 hPa | 0 mm | - | 743 W/m² | - |
| 1778177812 | 23.33° C | 50% | 1016.2 hPa | 0 mm | - | 744 W/m² | - |
| 1778177509 | 23.89° C | 49% | 1016.3 hPa | 0 mm | - | 727 W/m² | - |
| 1778177205 | 23.33° C | 50% | 1016.4 hPa | 0 mm | - | 746 W/m² | - |
| 1778176902 | 23.33° C | 50% | 1016.6 hPa | 0 mm | - | 767 W/m² | - |
| 1778176598 | 25° C | 47% | 1016.4 hPa | 0 mm | - | 782 W/m² | - |
| 1778176295 | 22.78° C | 51% | 1016.4 hPa | 0 mm | - | 779 W/m² | - |
| 1778175992 | 22.78° C | 52% | 1016.6 hPa | 0 mm | - | 798 W/m² | - |
* Rain latest hour (hover to see other rain measurements)
** Current wind speed in m/s (hover to see current wind gust speed)